sensor_id;sensor_type;location;lat;lon;timestamp;P1;durP1;ratioP1;P2;durP2;ratioP2
6344;SDS011;3205;42.666;23.264;2023-04-25T00:01:16;10.10;;;3.87;;
6344;SDS011;3205;42.666;23.264;2023-04-25T00:03:43;9.10;;;3.80;;
6344;SDS011;3205;42.666;23.264;2023-04-25T00:06:10;6.13;;;3.77;;
6344;SDS011;3205;42.666;23.264;2023-04-25T00:08:37;6.63;;;4.13;;
6344;SDS011;3205;42.666;23.264;2023-04-25T00:11:03;7.13;;;3.87;;
6344;SDS011;3205;42.666;23.264;2023-04-25T00:13:30;8.70;;;3.83;;
6344;SDS011;3205;42.666;23.264;2023-04-25T00:15:56;3.67;;;3.30;;
6344;SDS011;3205;42.666;23.264;2023-04-25T00:18:23;4.50;;;2.90;;
6344;SDS011;3205;42.666;23.264;2023-04-25T00:20:49;4.33;;;3.70;;
6344;SDS011;3205;42.666;23.264;2023-04-25T00:23:16;3.90;;;3.47;;
6344;SDS011;3205;42.666;23.264;2023-04-25T00:25:44;5.37;;;4.10;;
6344;SDS011;3205;42.666;23.264;2023-04-25T00:28:10;6.57;;;3.90;;
6344;SDS011;3205;42.666;23.264;2023-04-25T00:30:36;7.07;;;3.87;;
6344;SDS011;3205;42.666;23.264;2023-04-25T00:33:02;6.23;;;4.00;;
6344;SDS011;3205;42.666;23.264;2023-04-25T00:35:28;4.90;;;4.40;;
6344;SDS011;3205;42.666;23.264;2023-04-25T00:37:54;4.10;;;3.80;;
6344;SDS011;3205;42.666;23.264;2023-04-25T00:40:20;7.43;;;4.00;;
6344;SDS011;3205;42.666;23.264;2023-04-25T00:42:47;4.20;;;3.33;;
6344;SDS011;3205;42.666;23.264;2023-04-25T00:45:14;6.03;;;3.97;;
6344;SDS011;3205;42.666;23.264;2023-04-25T00:47:42;3.33;;;2.87;;
6344;SDS011;3205;42.666;23.264;2023-04-25T00:50:09;3.87;;;2.83;;
6344;SDS011;3205;42.666;23.264;2023-04-25T00:52:35;4.10;;;2.57;;
6344;SDS011;3205;42.666;23.264;2023-04-25T00:55:03;3.30;;;2.40;;
6344;SDS011;3205;42.666;23.264;2023-04-25T00:57:30;2.83;;;2.63;;
6344;SDS011;3205;42.666;23.264;2023-04-25T00:59:57;3.43;;;2.40;;
6344;SDS011;3205;42.666;23.264;2023-04-25T01:02:24;4.33;;;2.50;;
6344;SDS011;3205;42.666;23.264;2023-04-25T01:04:52;4.57;;;2.57;;
6344;SDS011;3205;42.666;23.264;2023-04-25T01:07:18;3.63;;;2.90;;
6344;SDS011;3205;42.666;23.264;2023-04-25T01:09:45;10.23;;;3.10;;
6344;SDS011;3205;42.666;23.264;2023-04-25T01:12:11;3.93;;;2.90;;
6344;SDS011;3205;42.666;23.264;2023-04-25T01:14:38;4.30;;;3.40;;
6344;SDS011;3205;42.666;23.264;2023-04-25T01:17:05;6.13;;;3.63;;
6344;SDS011;3205;42.666;23.264;2023-04-25T01:19:32;5.33;;;4.70;;
6344;SDS011;3205;42.666;23.264;2023-04-25T01:21:59;5.20;;;4.57;;
6344;SDS011;3205;42.666;23.264;2023-04-25T01:24:25;5.53;;;5.07;;
6344;SDS011;3205;42.666;23.264;2023-04-25T01:26:51;8.37;;;5.03;;
6344;SDS011;3205;42.666;23.264;2023-04-25T01:29:21;6.07;;;5.30;;
6344;SDS011;3205;42.666;23.264;2023-04-25T01:31:48;7.40;;;5.57;;
6344;SDS011;3205;42.666;23.264;2023-04-25T01:34:15;6.87;;;5.43;;
6344;SDS011;3205;42.666;23.264;2023-04-25T01:36:41;7.60;;;6.17;;
6344;SDS011;3205;42.666;23.264;2023-04-25T01:39:08;7.27;;;5.47;;
6344;SDS011;3205;42.666;23.264;2023-04-25T01:41:35;8.80;;;7.27;;
6344;SDS011;3205;42.666;23.264;2023-04-25T01:44:01;7.50;;;6.40;;
6344;SDS011;3205;42.666;23.264;2023-04-25T01:46:27;9.40;;;7.33;;
6344;SDS011;3205;42.666;23.264;2023-04-25T01:48:57;9.90;;;7.70;;
6344;SDS011;3205;42.666;23.264;2023-04-25T01:51:23;9.43;;;7.27;;
6344;SDS011;3205;42.666;23.264;2023-04-25T01:53:50;9.57;;;7.60;;
6344;SDS011;3205;42.666;23.264;2023-04-25T01:56:18;17.40;;;8.63;;
6344;SDS011;3205;42.666;23.264;2023-04-25T01:58:44;12.30;;;7.87;;
6344;SDS011;3205;42.666;23.264;2023-04-25T02:01:11;10.27;;;8.37;;
6344;SDS011;3205;42.666;23.264;2023-04-25T02:03:37;9.77;;;7.87;;
6344;SDS011;3205;42.666;23.264;2023-04-25T02:06:03;10.33;;;8.23;;
6344;SDS011;3205;42.666;23.264;2023-04-25T02:08:29;7.43;;;6.20;;
6344;SDS011;3205;42.666;23.264;2023-04-25T02:10:59;7.13;;;5.20;;
6344;SDS011;3205;42.666;23.264;2023-04-25T02:13:27;5.73;;;5.13;;
6344;SDS011;3205;42.666;23.264;2023-04-25T02:15:53;7.90;;;4.47;;
6344;SDS011;3205;42.666;23.264;2023-04-25T02:18:19;7.93;;;5.00;;
6344;SDS011;3205;42.666;23.264;2023-04-25T02:20:46;6.00;;;4.10;;
6344;SDS011;3205;42.666;23.264;2023-04-25T02:23:12;5.53;;;4.50;;
6344;SDS011;3205;42.666;23.264;2023-04-25T02:25:40;4.93;;;4.43;;
6344;SDS011;3205;42.666;23.264;2023-04-25T02:28:06;6.87;;;6.10;;
6344;SDS011;3205;42.666;23.264;2023-04-25T02:30:33;8.73;;;6.63;;
6344;SDS011;3205;42.666;23.264;2023-04-25T02:33:00;11.23;;;7.67;;
6344;SDS011;3205;42.666;23.264;2023-04-25T02:35:26;10.90;;;7.70;;
6344;SDS011;3205;42.666;23.264;2023-04-25T02:37:52;10.20;;;7.57;;
6344;SDS011;3205;42.666;23.264;2023-04-25T02:40:18;12.80;;;8.03;;
6344;SDS011;3205;42.666;23.264;2023-04-25T02:42:44;9.53;;;6.30;;
6344;SDS011;3205;42.666;23.264;2023-04-25T02:45:11;8.93;;;5.90;;
6344;SDS011;3205;42.666;23.264;2023-04-25T02:47:37;6.60;;;5.90;;
6344;SDS011;3205;42.666;23.264;2023-04-25T02:50:04;8.87;;;6.47;;
6344;SDS011;3205;42.666;23.264;2023-04-25T02:52:31;15.50;;;9.83;;
6344;SDS011;3205;42.666;23.264;2023-04-25T02:54:57;17.60;;;10.83;;
6344;SDS011;3205;42.666;23.264;2023-04-25T02:57:23;18.20;;;11.57;;
6344;SDS011;3205;42.666;23.264;2023-04-25T02:59:50;17.07;;;11.27;;
6344;SDS011;3205;42.666;23.264;2023-04-25T03:02:16;14.33;;;10.57;;
6344;SDS011;3205;42.666;23.264;2023-04-25T03:04:43;17.47;;;10.77;;
6344;SDS011;3205;42.666;23.264;2023-04-25T03:07:09;15.27;;;11.07;;
6344;SDS011;3205;42.666;23.264;2023-04-25T03:09:35;17.20;;;11.37;;
6344;SDS011;3205;42.666;23.264;2023-04-25T03:12:02;17.70;;;11.23;;
6344;SDS011;3205;42.666;23.264;2023-04-25T03:14:28;20.63;;;11.00;;
6344;SDS011;3205;42.666;23.264;2023-04-25T03:16:54;14.00;;;11.00;;
6344;SDS011;3205;42.666;23.264;2023-04-25T03:19:20;12.67;;;9.40;;
6344;SDS011;3205;42.666;23.264;2023-04-25T03:21:47;14.70;;;9.50;;
6344;SDS011;3205;42.666;23.264;2023-04-25T03:24:13;15.77;;;10.83;;
6344;SDS011;3205;42.666;23.264;2023-04-25T03:26:40;16.40;;;11.23;;
6344;SDS011;3205;42.666;23.264;2023-04-25T03:29:06;14.53;;;9.40;;
6344;SDS011;3205;42.666;23.264;2023-04-25T03:31:32;15.97;;;10.57;;
6344;SDS011;3205;42.666;23.264;2023-04-25T03:33:58;16.77;;;12.10;;
6344;SDS011;3205;42.666;23.264;2023-04-25T03:36:24;17.37;;;11.57;;
6344;SDS011;3205;42.666;23.264;2023-04-25T03:38:51;18.97;;;12.37;;
6344;SDS011;3205;42.666;23.264;2023-04-25T03:41:17;20.83;;;12.63;;
6344;SDS011;3205;42.666;23.264;2023-04-25T03:43:43;18.63;;;12.57;;
6344;SDS011;3205;42.666;23.264;2023-04-25T03:46:09;16.93;;;12.07;;
6344;SDS011;3205;42.666;23.264;2023-04-25T03:48:35;17.30;;;12.40;;
6344;SDS011;3205;42.666;23.264;2023-04-25T03:51:01;16.67;;;11.43;;
6344;SDS011;3205;42.666;23.264;2023-04-25T03:53:27;16.93;;;12.43;;
6344;SDS011;3205;42.666;23.264;2023-04-25T03:55:54;16.70;;;12.30;;
6344;SDS011;3205;42.666;23.264;2023-04-25T03:58:20;17.17;;;10.73;;
6344;SDS011;3205;42.666;23.264;2023-04-25T04:00:48;13.47;;;10.23;;
6344;SDS011;3205;42.666;23.264;2023-04-25T04:03:14;13.37;;;9.77;;
6344;SDS011;3205;42.666;23.264;2023-04-25T04:05:40;13.17;;;9.83;;
6344;SDS011;3205;42.666;23.264;2023-04-25T04:08:06;12.57;;;9.43;;
6344;SDS011;3205;42.666;23.264;2023-04-25T04:10:32;14.47;;;9.17;;
6344;SDS011;3205;42.666;23.264;2023-04-25T04:12:59;12.17;;;9.10;;
6344;SDS011;3205;42.666;23.264;2023-04-25T04:15:25;11.80;;;8.50;;
6344;SDS011;3205;42.666;23.264;2023-04-25T04:17:51;10.37;;;8.67;;
6344;SDS011;3205;42.666;23.264;2023-04-25T04:20:17;11.33;;;8.43;;
6344;SDS011;3205;42.666;23.264;2023-04-25T04:22:43;9.47;;;7.77;;
6344;SDS011;3205;42.666;23.264;2023-04-25T04:25:09;9.50;;;8.47;;
6344;SDS011;3205;42.666;23.264;2023-04-25T04:27:36;10.47;;;8.07;;
6344;SDS011;3205;42.666;23.264;2023-04-25T04:30:04;9.93;;;8.70;;
6344;SDS011;3205;42.666;23.264;2023-04-25T04:32:31;10.73;;;8.33;;
6344;SDS011;3205;42.666;23.264;2023-04-25T04:34:59;9.23;;;8.20;;
6344;SDS011;3205;42.666;23.264;2023-04-25T04:37:25;10.60;;;7.50;;
6344;SDS011;3205;42.666;23.264;2023-04-25T04:39:51;10.73;;;7.93;;
6344;SDS011;3205;42.666;23.264;2023-04-25T04:42:17;10.70;;;7.73;;
6344;SDS011;3205;42.666;23.264;2023-04-25T04:44:43;8.40;;;6.60;;
6344;SDS011;3205;42.666;23.264;2023-04-25T04:47:10;10.30;;;7.77;;
6344;SDS011;3205;42.666;23.264;2023-04-25T04:49:39;9.43;;;7.73;;
6344;SDS011;3205;42.666;23.264;2023-04-25T04:52:05;9.17;;;7.07;;
6344;SDS011;3205;42.666;23.264;2023-04-25T04:54:31;10.37;;;7.20;;
6344;SDS011;3205;42.666;23.264;2023-04-25T04:56:57;8.63;;;7.73;;
6344;SDS011;3205;42.666;23.264;2023-04-25T04:59:23;9.70;;;7.20;;
6344;SDS011;3205;42.666;23.264;2023-04-25T05:01:50;9.23;;;7.17;;
6344;SDS011;3205;42.666;23.264;2023-04-25T05:04:18;10.67;;;8.67;;
6344;SDS011;3205;42.666;23.264;2023-04-25T05:06:45;10.23;;;7.80;;
6344;SDS011;3205;42.666;23.264;2023-04-25T05:09:11;11.77;;;8.23;;
6344;SDS011;3205;42.666;23.264;2023-04-25T05:11:37;11.90;;;9.53;;
6344;SDS011;3205;42.666;23.264;2023-04-25T05:14:03;11.30;;;8.77;;
6344;SDS011;3205;42.666;23.264;2023-04-25T05:16:29;11.60;;;7.97;;
6344;SDS011;3205;42.666;23.264;2023-04-25T05:18:55;11.97;;;8.60;;
6344;SDS011;3205;42.666;23.264;2023-04-25T05:21:22;9.23;;;7.73;;
6344;SDS011;3205;42.666;23.264;2023-04-25T05:23:48;10.03;;;8.37;;
6344;SDS011;3205;42.666;23.264;2023-04-25T05:26:14;10.20;;;8.30;;
6344;SDS011;3205;42.666;23.264;2023-04-25T05:28:40;17.10;;;10.00;;
6344;SDS011;3205;42.666;23.264;2023-04-25T05:31:07;13.87;;;9.87;;
6344;SDS011;3205;42.666;23.264;2023-04-25T05:33:33;16.30;;;10.70;;
6344;SDS011;3205;42.666;23.264;2023-04-25T05:35:59;13.67;;;11.30;;
6344;SDS011;3205;42.666;23.264;2023-04-25T05:38:26;16.33;;;10.93;;
6344;SDS011;3205;42.666;23.264;2023-04-25T05:40:52;15.70;;;11.30;;
6344;SDS011;3205;42.666;23.264;2023-04-25T05:43:18;16.90;;;11.90;;
6344;SDS011;3205;42.666;23.264;2023-04-25T05:45:44;20.77;;;11.57;;
6344;SDS011;3205;42.666;23.264;2023-04-25T05:48:10;13.77;;;10.00;;
6344;SDS011;3205;42.666;23.264;2023-04-25T05:50:36;13.37;;;10.33;;
6344;SDS011;3205;42.666;23.264;2023-04-25T05:53:02;11.83;;;9.40;;
6344;SDS011;3205;42.666;23.264;2023-04-25T05:55:29;18.67;;;10.60;;
6344;SDS011;3205;42.666;23.264;2023-04-25T05:57:55;12.87;;;10.10;;
6344;SDS011;3205;42.666;23.264;2023-04-25T06:00:21;15.00;;;11.20;;
6344;SDS011;3205;42.666;23.264;2023-04-25T06:02:47;26.20;;;15.50;;
6344;SDS011;3205;42.666;23.264;2023-04-25T06:05:14;13.50;;;10.03;;
6344;SDS011;3205;42.666;23.264;2023-04-25T06:07:40;10.43;;;8.70;;
6344;SDS011;3205;42.666;23.264;2023-04-25T06:10:07;13.57;;;9.27;;
6344;SDS011;3205;42.666;23.264;2023-04-25T06:12:34;12.43;;;9.87;;
6344;SDS011;3205;42.666;23.264;2023-04-25T06:15:00;18.00;;;11.10;;
6344;SDS011;3205;42.666;23.264;2023-04-25T06:17:26;17.07;;;11.43;;
6344;SDS011;3205;42.666;23.264;2023-04-25T06:19:52;13.57;;;10.13;;
6344;SDS011;3205;42.666;23.264;2023-04-25T06:22:18;16.70;;;11.40;;
6344;SDS011;3205;42.666;23.264;2023-04-25T06:24:44;13.23;;;10.83;;
6344;SDS011;3205;42.666;23.264;2023-04-25T06:27:11;15.17;;;11.10;;
6344;SDS011;3205;42.666;23.264;2023-04-25T06:29:37;22.17;;;10.87;;
6344;SDS011;3205;42.666;23.264;2023-04-25T06:32:04;10.87;;;8.67;;
6344;SDS011;3205;42.666;23.264;2023-04-25T06:34:30;16.23;;;10.03;;
6344;SDS011;3205;42.666;23.264;2023-04-25T06:36:56;14.40;;;10.00;;
6344;SDS011;3205;42.666;23.264;2023-04-25T06:39:22;19.93;;;9.83;;
6344;SDS011;3205;42.666;23.264;2023-04-25T06:41:49;12.93;;;9.10;;
6344;SDS011;3205;42.666;23.264;2023-04-25T06:44:15;12.93;;;9.30;;
6344;SDS011;3205;42.666;23.264;2023-04-25T06:46:42;15.37;;;9.77;;
6344;SDS011;3205;42.666;23.264;2023-04-25T06:49:08;19.13;;;9.50;;
6344;SDS011;3205;42.666;23.264;2023-04-25T06:51:34;10.77;;;8.33;;
6344;SDS011;3205;42.666;23.264;2023-04-25T06:54:00;15.47;;;11.03;;
6344;SDS011;3205;42.666;23.264;2023-04-25T06:56:29;26.50;;;14.23;;
6344;SDS011;3205;42.666;23.264;2023-04-25T06:58:56;14.10;;;10.03;;
6344;SDS011;3205;42.666;23.264;2023-04-25T07:01:22;11.57;;;8.40;;
6344;SDS011;3205;42.666;23.264;2023-04-25T07:03:48;11.83;;;7.83;;
6344;SDS011;3205;42.666;23.264;2023-04-25T07:06:15;12.90;;;8.70;;
6344;SDS011;3205;42.666;23.264;2023-04-25T07:08:41;11.07;;;7.97;;
6344;SDS011;3205;42.666;23.264;2023-04-25T07:11:07;11.50;;;7.63;;
6344;SDS011;3205;42.666;23.264;2023-04-25T07:13:33;16.90;;;8.43;;
6344;SDS011;3205;42.666;23.264;2023-04-25T07:15:59;11.33;;;7.77;;
6344;SDS011;3205;42.666;23.264;2023-04-25T07:18:25;18.30;;;12.10;;
6344;SDS011;3205;42.666;23.264;2023-04-25T07:20:52;13.17;;;8.20;;
6344;SDS011;3205;42.666;23.264;2023-04-25T07:23:18;13.43;;;8.80;;
6344;SDS011;3205;42.666;23.264;2023-04-25T07:25:44;13.27;;;7.87;;
6344;SDS011;3205;42.666;23.264;2023-04-25T07:28:10;14.07;;;8.93;;
6344;SDS011;3205;42.666;23.264;2023-04-25T07:30:37;17.03;;;9.83;;
6344;SDS011;3205;42.666;23.264;2023-04-25T07:33:03;19.60;;;10.60;;
6344;SDS011;3205;42.666;23.264;2023-04-25T07:35:29;15.27;;;8.00;;
6344;SDS011;3205;42.666;23.264;2023-04-25T07:37:56;21.37;;;9.27;;
6344;SDS011;3205;42.666;23.264;2023-04-25T07:40:22;13.90;;;7.37;;
6344;SDS011;3205;42.666;23.264;2023-04-25T07:42:48;12.00;;;8.00;;
6344;SDS011;3205;42.666;23.264;2023-04-25T07:45:14;12.35;;;7.90;;
6344;SDS011;3205;42.666;23.264;2023-04-25T07:47:40;10.95;;;7.25;;
6344;SDS011;3205;42.666;23.264;2023-04-25T07:50:07;17.70;;;8.25;;
6344;SDS011;3205;42.666;23.264;2023-04-25T07:52:34;19.77;;;8.13;;
6344;SDS011;3205;42.666;23.264;2023-04-25T07:55:01;10.55;;;7.57;;
6344;SDS011;3205;42.666;23.264;2023-04-25T07:57:28;16.55;;;7.55;;
6344;SDS011;3205;42.666;23.264;2023-04-25T07:59:54;13.10;;;6.80;;
6344;SDS011;3205;42.666;23.264;2023-04-25T08:02:20;14.80;;;7.20;;
6344;SDS011;3205;42.666;23.264;2023-04-25T08:04:46;13.95;;;7.28;;
6344;SDS011;3205;42.666;23.264;2023-04-25T08:07:14;12.63;;;6.03;;
6344;SDS011;3205;42.666;23.264;2023-04-25T08:09:40;9.82;;;5.53;;
6344;SDS011;3205;42.666;23.264;2023-04-25T08:12:07;7.07;;;6.03;;
6344;SDS011;3205;42.666;23.264;2023-04-25T08:14:33;9.10;;;6.05;;
6344;SDS011;3205;42.666;23.264;2023-04-25T08:17:02;2.30;;;2.13;;
6344;SDS011;3205;42.666;23.264;2023-04-25T08:19:28;2.33;;;2.13;;
6344;SDS011;3205;42.666;23.264;2023-04-25T08:21:55;9.13;;;2.67;;
6344;SDS011;3205;42.666;23.264;2023-04-25T08:24:21;7.28;;;2.40;;
6344;SDS011;3205;42.666;23.264;2023-04-25T08:26:47;5.75;;;2.25;;
6344;SDS011;3205;42.666;23.264;2023-04-25T08:29:14;3.92;;;2.20;;
6344;SDS011;3205;42.666;23.264;2023-04-25T08:31:40;5.50;;;1.92;;
6344;SDS011;3205;42.666;23.264;2023-04-25T08:34:06;2.55;;;2.05;;
6344;SDS011;3205;42.666;23.264;2023-04-25T08:36:32;2.95;;;2.50;;
6344;SDS011;3205;42.666;23.264;2023-04-25T08:38:58;4.68;;;2.28;;
6344;SDS011;3205;42.666;23.264;2023-04-25T08:41:25;3.67;;;2.15;;
6344;SDS011;3205;42.666;23.264;2023-04-25T08:43:52;3.05;;;2.20;;
6344;SDS011;3205;42.666;23.264;2023-04-25T08:46:19;2.83;;;1.98;;
6344;SDS011;3205;42.666;23.264;2023-04-25T08:48:46;3.70;;;1.90;;
6344;SDS011;3205;42.666;23.264;2023-04-25T08:51:14;8.73;;;1.92;;
6344;SDS011;3205;42.666;23.264;2023-04-25T08:53:47;2.90;;;1.90;;
6344;SDS011;3205;42.666;23.264;2023-04-25T08:56:16;1.98;;;1.83;;
6344;SDS011;3205;42.666;23.264;2023-04-25T08:58:43;6.90;;;1.90;;
6344;SDS011;3205;42.666;23.264;2023-04-25T09:01:11;2.35;;;1.73;;
6344;SDS011;3205;42.666;23.264;2023-04-25T09:03:38;4.80;;;1.60;;
6344;SDS011;3205;42.666;23.264;2023-04-25T09:06:04;4.63;;;1.58;;
6344;SDS011;3205;42.666;23.264;2023-04-25T09:08:30;4.80;;;1.98;;
6344;SDS011;3205;42.666;23.264;2023-04-25T09:10:56;5.68;;;2.20;;
6344;SDS011;3205;42.666;23.264;2023-04-25T09:13:26;3.75;;;1.60;;
6344;SDS011;3205;42.666;23.264;2023-04-25T09:15:54;7.25;;;1.67;;
6344;SDS011;3205;42.666;23.264;2023-04-25T09:18:24;18.65;;;2.28;;
6344;SDS011;3205;42.666;23.264;2023-04-25T09:20:52;4.22;;;1.88;;
6344;SDS011;3205;42.666;23.264;2023-04-25T09:23:19;10.45;;;3.40;;
6344;SDS011;3205;42.666;23.264;2023-04-25T09:25:47;5.90;;;1.83;;
6344;SDS011;3205;42.666;23.264;2023-04-25T09:28:13;2.75;;;1.27;;
6344;SDS011;3205;42.666;23.264;2023-04-25T09:30:39;1.65;;;1.33;;
6344;SDS011;3205;42.666;23.264;2023-04-25T09:33:05;3.97;;;1.35;;
6344;SDS011;3205;42.666;23.264;2023-04-25T09:35:35;4.25;;;1.52;;
6344;SDS011;3205;42.666;23.264;2023-04-25T09:38:07;1.92;;;1.75;;
6344;SDS011;3205;42.666;23.264;2023-04-25T09:40:34;2.15;;;1.15;;
6344;SDS011;3205;42.666;23.264;2023-04-25T09:43:08;1.58;;;1.00;;
6344;SDS011;3205;42.666;23.264;2023-04-25T09:45:40;1.05;;;0.60;;
6344;SDS011;3205;42.666;23.264;2023-04-25T09:48:10;5.13;;;1.30;;
6344;SDS011;3205;42.666;23.264;2023-04-25T09:50:37;1.08;;;1.05;;
6344;SDS011;3205;42.666;23.264;2023-04-25T09:53:04;0.90;;;0.90;;
6344;SDS011;3205;42.666;23.264;2023-04-25T09:55:32;1.10;;;1.00;;
6344;SDS011;3205;42.666;23.264;2023-04-25T09:58:01;0.90;;;0.90;;
6344;SDS011;3205;42.666;23.264;2023-04-25T10:00:30;0.95;;;0.93;;
6344;SDS011;3205;42.666;23.264;2023-04-25T10:02:57;1.55;;;1.00;;
6344;SDS011;3205;42.666;23.264;2023-04-25T10:05:29;1.60;;;1.27;;
6344;SDS011;3205;42.666;23.264;2023-04-25T10:07:58;6.07;;;1.50;;
6344;SDS011;3205;42.666;23.264;2023-04-25T10:10:26;12.57;;;1.70;;
6344;SDS011;3205;42.666;23.264;2023-04-25T10:12:54;8.65;;;1.30;;
6344;SDS011;3205;42.666;23.264;2023-04-25T10:15:20;1.48;;;1.15;;
6344;SDS011;3205;42.666;23.264;2023-04-25T10:17:47;1.08;;;1.08;;
6344;SDS011;3205;42.666;23.264;2023-04-25T10:20:15;1.88;;;1.00;;
6344;SDS011;3205;42.666;23.264;2023-04-25T10:22:41;1.50;;;1.20;;
6344;SDS011;3205;42.666;23.264;2023-04-25T10:25:10;4.03;;;1.38;;
6344;SDS011;3205;42.666;23.264;2023-04-25T10:27:36;3.88;;;1.48;;
6344;SDS011;3205;42.666;23.264;2023-04-25T10:30:04;2.40;;;1.40;;
6344;SDS011;3205;42.666;23.264;2023-04-25T10:32:35;3.25;;;1.15;;
6344;SDS011;3205;42.666;23.264;2023-04-25T10:35:11;1.50;;;1.40;;
6344;SDS011;3205;42.666;23.264;2023-04-25T10:37:38;2.42;;;1.15;;
6344;SDS011;3205;42.666;23.264;2023-04-25T10:40:21;1.10;;;1.10;;
6344;SDS011;3205;42.666;23.264;2023-04-25T10:42:48;1.02;;;0.82;;
6344;SDS011;3205;42.666;23.264;2023-04-25T10:45:15;5.00;;;1.00;;
6344;SDS011;3205;42.666;23.264;2023-04-25T10:47:43;2.50;;;0.93;;
6344;SDS011;3205;42.666;23.264;2023-04-25T10:50:10;2.50;;;0.90;;
6344;SDS011;3205;42.666;23.264;2023-04-25T10:52:38;1.30;;;0.82;;
6344;SDS011;3205;42.666;23.264;2023-04-25T10:55:05;1.67;;;0.88;;
6344;SDS011;3205;42.666;23.264;2023-04-25T10:57:36;3.40;;;0.90;;
6344;SDS011;3205;42.666;23.264;2023-04-25T11:02:52;2.55;;;1.00;;
6344;SDS011;3205;42.666;23.264;2023-04-25T11:05:23;3.42;;;0.93;;
6344;SDS011;3205;42.666;23.264;2023-04-25T11:07:56;0.90;;;0.90;;
6344;SDS011;3205;42.666;23.264;2023-04-25T11:10:25;1.17;;;0.68;;
6344;SDS011;3205;42.666;23.264;2023-04-25T11:12:51;2.33;;;0.80;;
6344;SDS011;3205;42.666;23.264;2023-04-25T11:15:17;0.60;;;0.60;;
6344;SDS011;3205;42.666;23.264;2023-04-25T11:17:44;0.70;;;0.70;;
6344;SDS011;3205;42.666;23.264;2023-04-25T11:20:11;1.83;;;1.02;;
6344;SDS011;3205;42.666;23.264;2023-04-25T11:22:39;2.10;;;0.80;;
6344;SDS011;3205;42.666;23.264;2023-04-25T11:25:06;3.13;;;1.10;;
6344;SDS011;3205;42.666;23.264;2023-04-25T11:27:33;2.15;;;1.10;;
6344;SDS011;3205;42.666;23.264;2023-04-25T11:30:09;2.53;;;1.15;;
6344;SDS011;3205;42.666;23.264;2023-04-25T11:32:36;1.38;;;1.20;;
6344;SDS011;3205;42.666;23.264;2023-04-25T11:35:04;3.45;;;1.00;;
6344;SDS011;3205;42.666;23.264;2023-04-25T11:37:31;2.55;;;1.10;;
6344;SDS011;3205;42.666;23.264;2023-04-25T11:39:59;6.13;;;1.27;;
6344;SDS011;3205;42.666;23.264;2023-04-25T11:42:25;1.65;;;1.05;;
6344;SDS011;3205;42.666;23.264;2023-04-25T11:44:51;3.80;;;1.30;;
6344;SDS011;3205;42.666;23.264;2023-04-25T11:47:17;3.30;;;1.48;;
6344;SDS011;3205;42.666;23.264;2023-04-25T11:49:44;1.48;;;1.02;;
6344;SDS011;3205;42.666;23.264;2023-04-25T11:52:10;2.83;;;0.98;;
6344;SDS011;3205;42.666;23.264;2023-04-25T11:54:37;1.27;;;1.17;;
6344;SDS011;3205;42.666;23.264;2023-04-25T11:57:03;3.73;;;2.53;;
6344;SDS011;3205;42.666;23.264;2023-04-25T11:59:29;4.80;;;1.90;;
6344;SDS011;3205;42.666;23.264;2023-04-25T12:01:56;2.78;;;1.45;;
6344;SDS011;3205;42.666;23.264;2023-04-25T12:04:23;1.35;;;1.25;;
6344;SDS011;3205;42.666;23.264;2023-04-25T12:06:52;3.20;;;1.10;;
6344;SDS011;3205;42.666;23.264;2023-04-25T12:09:20;2.92;;;1.30;;
6344;SDS011;3205;42.666;23.264;2023-04-25T12:11:55;2.72;;;0.90;;
6344;SDS011;3205;42.666;23.264;2023-04-25T12:14:23;1.92;;;1.00;;
6344;SDS011;3205;42.666;23.264;2023-04-25T12:16:52;3.92;;;1.23;;
6344;SDS011;3205;42.666;23.264;2023-04-25T12:19:21;4.47;;;1.40;;
6344;SDS011;3205;42.666;23.264;2023-04-25T12:21:47;2.92;;;1.00;;
6344;SDS011;3205;42.666;23.264;2023-04-25T12:24:14;6.25;;;1.30;;
6344;SDS011;3205;42.666;23.264;2023-04-25T12:26:49;2.88;;;1.02;;
6344;SDS011;3205;42.666;23.264;2023-04-25T12:29:17;2.63;;;1.02;;
6344;SDS011;3205;42.666;23.264;2023-04-25T12:31:45;2.35;;;1.00;;
6344;SDS011;3205;42.666;23.264;2023-04-25T12:34:11;3.60;;;1.25;;
6344;SDS011;3205;42.666;23.264;2023-04-25T12:36:37;2.05;;;1.10;;
6344;SDS011;3205;42.666;23.264;2023-04-25T12:39:03;3.67;;;1.10;;
6344;SDS011;3205;42.666;23.264;2023-04-25T12:41:29;2.25;;;0.80;;
6344;SDS011;3205;42.666;23.264;2023-04-25T12:43:56;3.50;;;0.82;;
6344;SDS011;3205;42.666;23.264;2023-04-25T12:46:22;0.65;;;0.65;;
6344;SDS011;3205;42.666;23.264;2023-04-25T12:48:48;2.00;;;1.10;;
6344;SDS011;3205;42.666;23.264;2023-04-25T12:51:15;2.03;;;0.60;;
6344;SDS011;3205;42.666;23.264;2023-04-25T12:53:41;1.25;;;1.13;;
6344;SDS011;3205;42.666;23.264;2023-04-25T12:56:07;4.05;;;1.35;;
6344;SDS011;3205;42.666;23.264;2023-04-25T12:58:34;2.37;;;1.00;;
6344;SDS011;3205;42.666;23.264;2023-04-25T13:01:01;4.60;;;1.10;;
6344;SDS011;3205;42.666;23.264;2023-04-25T13:03:27;9.38;;;1.75;;
6344;SDS011;3205;42.666;23.264;2023-04-25T13:05:53;8.30;;;2.60;;
6344;SDS011;3205;42.666;23.264;2023-04-25T13:08:19;9.27;;;2.90;;
6344;SDS011;3205;42.666;23.264;2023-04-25T13:10:45;10.00;;;2.43;;
6344;SDS011;3205;42.666;23.264;2023-04-25T13:13:13;9.17;;;2.70;;
6344;SDS011;3205;42.666;23.264;2023-04-25T13:15:39;4.47;;;2.50;;
6344;SDS011;3205;42.666;23.264;2023-04-25T13:18:05;5.80;;;2.30;;
6344;SDS011;3205;42.666;23.264;2023-04-25T13:20:32;4.07;;;2.10;;
6344;SDS011;3205;42.666;23.264;2023-04-25T13:22:58;5.53;;;2.73;;
6344;SDS011;3205;42.666;23.264;2023-04-25T13:25:24;3.67;;;2.27;;
6344;SDS011;3205;42.666;23.264;2023-04-25T13:27:50;7.43;;;2.10;;
6344;SDS011;3205;42.666;23.264;2023-04-25T13:30:16;6.60;;;1.93;;
6344;SDS011;3205;42.666;23.264;2023-04-25T13:32:42;5.37;;;2.27;;
6344;SDS011;3205;42.666;23.264;2023-04-25T13:35:10;5.70;;;2.73;;
6344;SDS011;3205;42.666;23.264;2023-04-25T13:37:37;8.67;;;5.73;;
6344;SDS011;3205;42.666;23.264;2023-04-25T13:40:04;9.47;;;5.43;;
6344;SDS011;3205;42.666;23.264;2023-04-25T13:42:35;6.70;;;3.33;;
6344;SDS011;3205;42.666;23.264;2023-04-25T13:45:01;3.47;;;2.60;;
6344;SDS011;3205;42.666;23.264;2023-04-25T13:47:28;3.33;;;2.10;;
6344;SDS011;3205;42.666;23.264;2023-04-25T13:49:55;2.37;;;2.17;;
6344;SDS011;3205;42.666;23.264;2023-04-25T13:52:22;3.83;;;1.80;;
6344;SDS011;3205;42.666;23.264;2023-04-25T13:54:49;2.43;;;2.00;;
6344;SDS011;3205;42.666;23.264;2023-04-25T13:57:15;2.30;;;2.10;;
6344;SDS011;3205;42.666;23.264;2023-04-25T13:59:41;6.97;;;2.93;;
6344;SDS011;3205;42.666;23.264;2023-04-25T14:02:08;2.30;;;1.90;;
6344;SDS011;3205;42.666;23.264;2023-04-25T14:04:34;1.97;;;1.87;;
6344;SDS011;3205;42.666;23.264;2023-04-25T14:07:01;4.23;;;2.20;;
6344;SDS011;3205;42.666;23.264;2023-04-25T14:09:29;3.27;;;1.90;;
6344;SDS011;3205;42.666;23.264;2023-04-25T14:11:56;2.63;;;1.10;;
6344;SDS011;3205;42.666;23.264;2023-04-25T14:14:22;1.17;;;1.07;;
6344;SDS011;3205;42.666;23.264;2023-04-25T14:16:49;1.00;;;0.80;;
6344;SDS011;3205;42.666;23.264;2023-04-25T14:19:16;2.83;;;1.10;;
6344;SDS011;3205;42.666;23.264;2023-04-25T14:21:42;0.93;;;0.93;;
6344;SDS011;3205;42.666;23.264;2023-04-25T14:24:09;1.43;;;1.30;;
6344;SDS011;3205;42.666;23.264;2023-04-25T14:26:37;1.40;;;1.30;;
6344;SDS011;3205;42.666;23.264;2023-04-25T14:29:03;3.37;;;1.40;;
6344;SDS011;3205;42.666;23.264;2023-04-25T14:31:30;3.13;;;1.40;;
6344;SDS011;3205;42.666;23.264;2023-04-25T14:33:56;1.07;;;1.07;;
6344;SDS011;3205;42.666;23.264;2023-04-25T14:36:22;1.10;;;1.10;;
6344;SDS011;3205;42.666;23.264;2023-04-25T14:38:49;1.23;;;1.13;;
6344;SDS011;3205;42.666;23.264;2023-04-25T14:41:15;4.10;;;1.57;;
6344;SDS011;3205;42.666;23.264;2023-04-25T14:43:41;2.00;;;1.77;;
6344;SDS011;3205;42.666;23.264;2023-04-25T14:46:08;1.73;;;1.10;;
6344;SDS011;3205;42.666;23.264;2023-04-25T14:48:34;3.90;;;1.33;;
6344;SDS011;3205;42.666;23.264;2023-04-25T14:51:00;3.60;;;1.60;;
6344;SDS011;3205;42.666;23.264;2023-04-25T14:53:26;3.80;;;1.58;;
6344;SDS011;3205;42.666;23.264;2023-04-25T14:55:53;1.95;;;1.45;;